Flinterbrise — PHCA — position and weather

sailwx.info

Track history (hours):
 
Tides and Currents Weather Stations Pressure Air Temp Water Temp Dewpoint Dewpoint Depression Visibility Wind Speed Wind Dir Waves Ship Positions

Flinterbrise

Last reported at 2014-Oct-22 04:18 UTC. Time now 2014-Oct-22 06:27 UTC.
Position N 59°39' E 023°35'.

Length 81 m; draft 3.3 m.

Type: Ship. MMSI: 246044000.

Date/timePositionNaut miles runAvg speedWind from/ knotsBaromVisibWave heightAir tempDewpointWater temp
2014-Oct-22 04:18N 59°39' E 023°35'  
2014-Oct-18 23:33N 59°39' E 024°44'1010.4
2014-Oct-18 22:33N 59°29' E 024°38'2 0.1
2014-Oct-18 04:17N 59°27' E 024°40'394 8.6
2014-Oct-16 06:29N 55°28' E 014°56'10 9.1
2014-Oct-16 05:22N 55°23' E 014°41'8 9.0
2014-Oct-16 04:27N 55°17' E 014°31'8 9.0
2014-Oct-16 03:33N 55°11' E 014°21'81 9.0
2014-Oct-15 18:30N 54°31' E 012°19'9 9.1
2014-Oct-15 17:32N 54°24' E 012°09'9 9.1
2014-Oct-15 16:33N 54°19' E 011°57'10 9.4
2014-Oct-15 15:32N 54°13' E 011°44'18 9.1
2014-Oct-15 13:33N 54°01' E 011°21'8 8.1
2014-Oct-15 12:33N 53°54' E 011°27'0 0.2
2014-Oct-15 11:33N 53°54' E 011°28'0 0.0
2014-Oct-15 10:28N 53°54' E 011°28'0 0.0
2014-Oct-15 09:33N 53°54' E 011°28'0 0.0
2014-Oct-15 08:33N 53°54' E 011°28'0 0.0
2014-Oct-15 07:33N 53°54' E 011°28'0 0.0
2014-Oct-15 06:32N 53°54' E 011°28'0 0.0
2014-Oct-15 05:32N 53°54' E 011°28'0 0.0
2014-Oct-15 04:31N 53°54' E 011°28'0 0.0
2014-Oct-15 03:31N 53°54' E 011°28'0 0.0
2014-Oct-15 02:33N 53°54' E 011°28'0 0.0
2014-Oct-15 01:30N 53°54' E 011°28'0 0.0
2014-Oct-15 00:33N 53°54' E 011°28'0 0.0
2014-Oct-14 23:32N 53°54' E 011°28'0 0.0
2014-Oct-14 22:29N 53°54' E 011°28'0 0.0
2014-Oct-14 21:31N 53°54' E 011°28'0 0.0
2014-Oct-14 20:31N 53°54' E 011°28'0 0.0
2014-Oct-14 19:33N 53°54' E 011°28'0 0.0
2014-Oct-14 18:33N 53°54' E 011°28'0 0.0
2014-Oct-14 17:33N 53°54' E 011°28'0 0.0
2014-Oct-14 16:33N 53°54' E 011°28'0 0.1
2014-Oct-14 14:30N 53°54' E 011°27'0 0.0
2014-Oct-14 13:33N 53°54' E 011°27'0 0.0
2014-Oct-14 12:33N 53°54' E 011°27'0 0.0
2014-Oct-14 11:33N 53°54' E 011°27'0 0.0
2014-Oct-14 10:33N 53°54' E 011°27'0 0.0
2014-Oct-14 09:33N 53°54' E 011°27'0 0.0
2014-Oct-14 08:33N 53°54' E 011°27'0 0.0
2014-Oct-14 07:33N 53°54' E 011°27'0 0.0
2014-Oct-14 06:32N 53°54' E 011°27'0 0.0
2014-Oct-14 05:33N 53°54' E 011°27'0 0.0
2014-Oct-14 04:33N 53°54' E 011°27'0 0.0
2014-Oct-14 03:33N 53°54' E 011°27'0 0.0
2014-Oct-14 02:33N 53°54' E 011°27'0 0.0
2014-Oct-14 01:33N 53°54' E 011°27'0 0.0
2014-Oct-14 00:33N 53°54' E 011°27'0 0.0
2014-Oct-13 23:33N 53°54' E 011°27'0 0.0
2014-Oct-13 22:33N 53°54' E 011°27'0 0.0
2014-Oct-13 21:33N 53°54' E 011°27'0 0.0
2014-Oct-13 20:33N 53°54' E 011°27'0 0.0
2014-Oct-13 19:33N 53°54' E 011°27'0 0.0
2014-Oct-13 18:33N 53°54' E 011°27'0 0.0
2014-Oct-13 17:33N 53°54' E 011°27'0 0.0
2014-Oct-13 16:33N 53°54' E 011°27'0 0.0
2014-Oct-13 15:33N 53°54' E 011°27'0 0.0
2014-Oct-13 14:33N 53°54' E 011°27'0 0.0
2014-Oct-13 13:33N 53°54' E 011°27'0 0.0
2014-Oct-13 12:33N 53°54' E 011°27'0 0.0
2014-Oct-13 11:33N 53°54' E 011°27'0 0.0
2014-Oct-13 10:33N 53°54' E 011°27'0 0.0
2014-Oct-13 09:33N 53°54' E 011°27'0 0.0
2014-Oct-13 08:33N 53°54' E 011°27'0 0.0
2014-Oct-13 07:33N 53°54' E 011°27'0 0.0
2014-Oct-13 06:33N 53°54' E 011°27'0 0.0
2014-Oct-13 05:33N 53°54' E 011°27'0 0.0
2014-Oct-13 04:33N 53°54' E 011°27'0 0.0
2014-Oct-13 03:33N 53°54' E 011°27'0 0.0
2014-Oct-13 02:33N 53°54' E 011°27'0 0.0
2014-Oct-13 01:33N 53°54' E 011°27'0 0.0
2014-Oct-13 00:33N 53°54' E 011°27'0 0.0
2014-Oct-12 23:33N 53°54' E 011°27'0 0.0
2014-Oct-12 22:33N 53°54' E 011°27'0 0.0
2014-Oct-12 21:33N 53°54' E 011°27'0 0.0
2014-Oct-12 20:33N 53°54' E 011°27'0 0.0
2014-Oct-12 19:33N 53°54' E 011°27'0 0.0
2014-Oct-12 18:33N 53°54' E 011°27'0 0.0
2014-Oct-12 17:33N 53°54' E 011°27'0 0.0
2014-Oct-12 16:32N 53°54' E 011°27'0 0.0
2014-Oct-12 15:32N 53°54' E 011°27'0 0.0
2014-Oct-12 14:31N 53°54' E 011°27'0 0.0
2014-Oct-12 13:31N 53°54' E 011°27'0 0.0
2014-Oct-12 12:33N 53°54' E 011°27'0 0.0
2014-Oct-12 11:33N 53°54' E 011°27'0 0.0
2014-Oct-12 10:33N 53°54' E 011°27'0 0.0
2014-Oct-12 09:32N 53°54' E 011°27'0 0.0
2014-Oct-12 08:32N 53°54' E 011°27'0 0.0
2014-Oct-12 07:31N 53°54' E 011°27'0 0.0
2014-Oct-12 06:31N 53°54' E 011°27'0 0.0
2014-Oct-12 05:33N 53°54' E 011°27'0 0.0
2014-Oct-12 04:33N 53°54' E 011°27'  
Track history (hours):
 
Tides and Currents Weather Stations Pressure Air Temp Water Temp Dewpoint Dewpoint Depression Visibility Wind Speed Wind Dir Waves Ship Positions

Flinterbrise

Last reported at 2014-Oct-22 04:18 UTC. Time now 2014-Oct-22 06:27 UTC.
Position N 59°39' E 023°35'.

Length 81 m; draft 3.3 m.

Type: Ship. MMSI: 246044000.

Date/timePositionNaut miles runAvg speedWind from/ knotsBaromVisibWave heightAir tempDewpointWater temp
2014-Oct-22 04:18N 59°39' E 023°35'  
2014-Oct-18 23:33N 59°39' E 024°44'1010.4
2014-Oct-18 22:33N 59°29' E 024°38'2 0.1
2014-Oct-18 04:17N 59°27' E 024°40'394 8.6
2014-Oct-16 06:29N 55°28' E 014°56'10 9.1
2014-Oct-16 05:22N 55°23' E 014°41'8 9.0
2014-Oct-16 04:27N 55°17' E 014°31'8 9.0
2014-Oct-16 03:33N 55°11' E 014°21'81 9.0
2014-Oct-15 18:30N 54°31' E 012°19'9 9.1
2014-Oct-15 17:32N 54°24' E 012°09'9 9.1
2014-Oct-15 16:33N 54°19' E 011°57'10 9.4
2014-Oct-15 15:32N 54°13' E 011°44'18 9.1
2014-Oct-15 13:33N 54°01' E 011°21'8 8.1
2014-Oct-15 12:33N 53°54' E 011°27'0 0.2
2014-Oct-15 11:33N 53°54' E 011°28'0 0.0
2014-Oct-15 10:28N 53°54' E 011°28'0 0.0
2014-Oct-15 09:33N 53°54' E 011°28'0 0.0
2014-Oct-15 08:33N 53°54' E 011°28'0 0.0
2014-Oct-15 07:33N 53°54' E 011°28'0 0.0
2014-Oct-15 06:32N 53°54' E 011°28'0 0.0
2014-Oct-15 05:32N 53°54' E 011°28'0 0.0
2014-Oct-15 04:31N 53°54' E 011°28'0 0.0
2014-Oct-15 03:31N 53°54' E 011°28'0 0.0
2014-Oct-15 02:33N 53°54' E 011°28'0 0.0
2014-Oct-15 01:30N 53°54' E 011°28'0 0.0
2014-Oct-15 00:33N 53°54' E 011°28'0 0.0
2014-Oct-14 23:32N 53°54' E 011°28'0 0.0
2014-Oct-14 22:29N 53°54' E 011°28'0 0.0
2014-Oct-14 21:31N 53°54' E 011°28'0 0.0
2014-Oct-14 20:31N 53°54' E 011°28'0 0.0
2014-Oct-14 19:33N 53°54' E 011°28'0 0.0
2014-Oct-14 18:33N 53°54' E 011°28'0 0.0
2014-Oct-14 17:33N 53°54' E 011°28'0 0.0
2014-Oct-14 16:33N 53°54' E 011°28'0 0.1
2014-Oct-14 14:30N 53°54' E 011°27'0 0.0
2014-Oct-14 13:33N 53°54' E 011°27'0 0.0
2014-Oct-14 12:33N 53°54' E 011°27'0 0.0
2014-Oct-14 11:33N 53°54' E 011°27'0 0.0
2014-Oct-14 10:33N 53°54' E 011°27'0 0.0
2014-Oct-14 09:33N 53°54' E 011°27'0 0.0
2014-Oct-14 08:33N 53°54' E 011°27'0 0.0
2014-Oct-14 07:33N 53°54' E 011°27'0 0.0
2014-Oct-14 06:32N 53°54' E 011°27'0 0.0
2014-Oct-14 05:33N 53°54' E 011°27'0 0.0
2014-Oct-14 04:33N 53°54' E 011°27'0 0.0
2014-Oct-14 03:33N 53°54' E 011°27'0 0.0
2014-Oct-14 02:33N 53°54' E 011°27'0 0.0
2014-Oct-14 01:33N 53°54' E 011°27'0 0.0
2014-Oct-14 00:33N 53°54' E 011°27'0 0.0
2014-Oct-13 23:33N 53°54' E 011°27'0 0.0
2014-Oct-13 22:33N 53°54' E 011°27'0 0.0
2014-Oct-13 21:33N 53°54' E 011°27'0 0.0
2014-Oct-13 20:33N 53°54' E 011°27'0 0.0
2014-Oct-13 19:33N 53°54' E 011°27'0 0.0
2014-Oct-13 18:33N 53°54' E 011°27'0 0.0
2014-Oct-13 17:33N 53°54' E 011°27'0 0.0
2014-Oct-13 16:33N 53°54' E 011°27'0 0.0
2014-Oct-13 15:33N 53°54' E 011°27'0 0.0
2014-Oct-13 14:33N 53°54' E 011°27'0 0.0
2014-Oct-13 13:33N 53°54' E 011°27'0 0.0
2014-Oct-13 12:33N 53°54' E 011°27'0 0.0
2014-Oct-13 11:33N 53°54' E 011°27'0 0.0
2014-Oct-13 10:33N 53°54' E 011°27'0 0.0
2014-Oct-13 09:33N 53°54' E 011°27'0 0.0
2014-Oct-13 08:33N 53°54' E 011°27'0 0.0
2014-Oct-13 07:33N 53°54' E 011°27'0 0.0
2014-Oct-13 06:33N 53°54' E 011°27'0 0.0
2014-Oct-13 05:33N 53°54' E 011°27'0 0.0
2014-Oct-13 04:33N 53°54' E 011°27'0 0.0
2014-Oct-13 03:33N 53°54' E 011°27'0 0.0
2014-Oct-13 02:33N 53°54' E 011°27'0 0.0
2014-Oct-13 01:33N 53°54' E 011°27'0 0.0
2014-Oct-13 00:33N 53°54' E 011°27'0 0.0
2014-Oct-12 23:33N 53°54' E 011°27'0 0.0
2014-Oct-12 22:33N 53°54' E 011°27'0 0.0
2014-Oct-12 21:33N 53°54' E 011°27'0 0.0
2014-Oct-12 20:33N 53°54' E 011°27'0 0.0
2014-Oct-12 19:33N 53°54' E 011°27'0 0.0
2014-Oct-12 18:33N 53°54' E 011°27'0 0.0
2014-Oct-12 17:33N 53°54' E 011°27'0 0.0
2014-Oct-12 16:32N 53°54' E 011°27'0 0.0
2014-Oct-12 15:32N 53°54' E 011°27'0 0.0
2014-Oct-12 14:31N 53°54' E 011°27'0 0.0
2014-Oct-12 13:31N 53°54' E 011°27'0 0.0
2014-Oct-12 12:33N 53°54' E 011°27'0 0.0
2014-Oct-12 11:33N 53°54' E 011°27'0 0.0
2014-Oct-12 10:33N 53°54' E 011°27'0 0.0
2014-Oct-12 09:32N 53°54' E 011°27'0 0.0
2014-Oct-12 08:32N 53°54' E 011°27'0 0.0
2014-Oct-12 07:31N 53°54' E 011°27'0 0.0
2014-Oct-12 06:31N 53°54' E 011°27'0 0.0
2014-Oct-12 05:33N 53°54' E 011°27'0 0.0
2014-Oct-12 04:33N 53°54' E 011°27'  

Dump ship's entire track history